createdAt,value
2023-05-04T00:00:26.967Z,101429.63
2023-05-04T00:03:14.069Z,101424.79
2023-05-04T00:05:44.352Z,101423.08
2023-05-04T00:08:19.186Z,101422.89
2023-05-04T00:10:47.982Z,101424.46
2023-05-04T00:13:17.239Z,101421.39
2023-05-04T00:15:46.920Z,101420.53
2023-05-04T00:18:27.150Z,101419.14
2023-05-04T00:21:02.405Z,101420.89
2023-05-04T00:23:38.655Z,101418.30
2023-05-04T00:26:08.465Z,101416.76
2023-05-04T00:28:38.078Z,101418.49
2023-05-04T00:31:09.258Z,101415.58
2023-05-04T00:34:01.646Z,101408.84
2023-05-04T00:36:31.020Z,101409.88
2023-05-04T00:39:04.043Z,101409.02
2023-05-04T00:41:36.025Z,101409.52
2023-05-04T00:44:06.449Z,101405.39
2023-05-04T00:46:38.638Z,101407.11
2023-05-04T00:49:10.153Z,101410.73
2023-05-04T00:51:46.900Z,101409.19
2023-05-04T00:54:19.763Z,101408.51
2023-05-04T00:56:52.791Z,101413.86
2023-05-04T00:59:25.676Z,101413.18
2023-05-04T01:02:18.222Z,101407.48
2023-05-04T01:04:55.807Z,101410.95
2023-05-04T01:07:52.670Z,101406.97
2023-05-04T01:10:55.453Z,101406.29
2023-05-04T01:13:26.184Z,101409.40
2023-05-04T01:15:58.962Z,101408.87
2023-05-04T01:18:40.550Z,101404.55
2023-05-04T01:21:14.364Z,101409.04
2023-05-04T01:23:44.077Z,101413.88
2023-05-04T01:26:27.634Z,101416.65
2023-05-04T01:29:16.254Z,101418.02
2023-05-04T01:31:49.662Z,101420.10
2023-05-04T01:34:19.815Z,101417.16
2023-05-04T01:36:49.582Z,101412.48
2023-05-04T01:39:18.378Z,101417.33
2023-05-04T01:41:47.347Z,101419.41
2023-05-04T01:44:17.981Z,101413.53
2023-05-04T01:46:53.638Z,101414.39
2023-05-04T01:49:26.721Z,101415.26
2023-05-04T01:51:58.694Z,101416.11
2023-05-04T01:54:34.751Z,101411.29
2023-05-04T01:57:07.838Z,101413.02
2023-05-04T01:59:37.020Z,101408.18
2023-05-04T02:02:06.985Z,101409.04
2023-05-04T02:04:46.190Z,101412.31
2023-05-04T02:07:25.838Z,101412.13
2023-05-04T02:10:03.174Z,101413.35
2023-05-04T02:12:33.235Z,101414.39
2023-05-04T02:15:07.500Z,101414.20
2023-05-04T02:17:39.880Z,101414.20
2023-05-04T02:20:15.682Z,101410.23
2023-05-04T02:23:01.254Z,101409.19
2023-05-04T02:25:42.118Z,101405.56
2023-05-04T02:28:14.276Z,101408.84
2023-05-04T02:30:44.304Z,101412.27
2023-05-04T02:33:16.874Z,101414.16
2023-05-04T02:35:47.307Z,101411.75
2023-05-04T02:38:28.672Z,101409.11
2023-05-04T02:40:58.089Z,101412.71
2023-05-04T02:43:27.796Z,101413.91
2023-05-04T02:46:05.509Z,101409.74
2023-05-04T02:48:35.002Z,101405.61
2023-05-04T02:51:06.332Z,101406.98
2023-05-04T02:53:41.266Z,101408.71
2023-05-04T02:56:10.576Z,101406.80
2023-05-04T02:58:39.350Z,101408.52
2023-05-04T03:01:08.496Z,101405.92
2023-05-04T03:03:37.848Z,101407.13
2023-05-04T03:06:12.891Z,101408.66
2023-05-04T03:08:42.200Z,101408.13
2023-05-04T03:11:27.665Z,101399.48
2023-05-04T03:14:13.891Z,101410.20
2023-05-04T03:16:43.118Z,101409.49
2023-05-04T03:19:12.060Z,101409.34
2023-05-04T03:21:43.724Z,101414.34
2023-05-04T03:24:13.538Z,101416.59
2023-05-04T03:26:54.497Z,101413.15
2023-05-04T03:29:33.213Z,101409.18
2023-05-04T03:32:07.516Z,101406.60
2023-05-04T03:34:37.545Z,101405.92
2023-05-04T03:37:13.501Z,101405.76
2023-05-04T03:39:45.465Z,101406.63
2023-05-04T03:42:13.847Z,101405.42
2023-05-04T03:44:47.152Z,101405.61
2023-05-04T03:47:21.058Z,101406.48
2023-05-04T03:49:55.260Z,101403.23
2023-05-04T03:52:24.464Z,101405.33
2023-05-04T03:54:53.557Z,101405.02
2023-05-04T03:57:26.863Z,101407.29
2023-05-04T04:00:01.794Z,101410.94
2023-05-04T04:02:33.496Z,101415.77
2023-05-04T04:05:03.679Z,101415.41
2023-05-04T04:08:08.922Z,101411.79
2023-05-04T04:10:41.167Z,101412.09
2023-05-04T04:13:11.437Z,101417.55
2023-05-04T04:15:44.761Z,101417.98
2023-05-04T04:18:18.997Z,101419.98
2023-05-04T04:20:50.754Z,101419.91
2023-05-04T04:23:21.572Z,101422.58
2023-05-04T04:25:53.657Z,101419.70
2023-05-04T04:28:23.888Z,101427.17
2023-05-04T04:30:59.778Z,101431.89
2023-05-04T04:33:29.336Z,101426.51
2023-05-04T04:35:58.429Z,101423.36
2023-05-04T04:38:27.938Z,101423.14
2023-05-04T04:40:57.754Z,101427.59
2023-05-04T04:43:27.764Z,101429.69
2023-05-04T04:45:57.057Z,101430.38
2023-05-04T04:48:31.796Z,101430.48
2023-05-04T04:51:01.298Z,101428.30
2023-05-04T04:53:30.797Z,101424.10
2023-05-04T04:56:04.713Z,101431.38
2023-05-04T04:58:34.816Z,101428.36
2023-05-04T05:01:05.191Z,101424.76
2023-05-04T05:03:33.952Z,101425.70
2023-05-04T05:06:04.350Z,101423.98
2023-05-04T05:08:33.573Z,101426.05
2023-05-04T05:11:05.618Z,101426.58
2023-05-04T05:13:34.771Z,101421.46
2023-05-04T05:16:06.296Z,101426.05
2023-05-04T05:18:35.870Z,101427.83
2023-05-04T05:21:05.400Z,101424.14
2023-05-04T05:23:36.786Z,101429.95
2023-05-04T05:26:05.720Z,101434.64
2023-05-04T05:28:34.638Z,101438.75
2023-05-04T05:31:24.570Z,101431.36
2023-05-04T05:33:59.423Z,101428.63
2023-05-04T05:36:31.699Z,101425.98
2023-05-04T05:39:07.051Z,101425.38
2023-05-04T05:41:56.075Z,101424.11
2023-05-04T05:44:28.063Z,101424.04
2023-05-04T05:47:02.208Z,101425.48
2023-05-04T05:49:39.785Z,101424.29
2023-05-04T05:52:21.801Z,101421.77
2023-05-04T05:55:02.443Z,101419.28
2023-05-04T05:57:51.329Z,101420.17
2023-05-04T06:00:25.690Z,101418.82
2023-05-04T06:03:08.164Z,101418.80
2023-05-04T06:05:38.675Z,101417.92
2023-05-04T06:08:13.363Z,101420.46
2023-05-04T06:10:44.937Z,101421.09
2023-05-04T06:13:19.842Z,101424.41
2023-05-04T06:16:00.122Z,101422.39
2023-05-04T06:18:34.082Z,101423.39
2023-05-04T06:21:06.280Z,101422.09
2023-05-04T06:23:47.042Z,101420.20
2023-05-04T06:26:33.145Z,101417.58
2023-05-04T06:29:09.480Z,101419.42
2023-05-04T06:31:52.918Z,101423.67
2023-05-04T06:34:22.835Z,101425.05
2023-05-04T06:36:56.615Z,101424.80
2023-05-04T06:39:29.043Z,101427.04
2023-05-04T06:42:01.636Z,101427.04
2023-05-04T06:44:40.800Z,101423.27
2023-05-04T06:47:18.698Z,101424.98
2023-05-04T06:50:20.375Z,101421.09
2023-05-04T06:53:13.147Z,101419.34
2023-05-04T06:55:51.039Z,101423.07
2023-05-04T06:58:23.639Z,101423.42
2023-05-04T07:00:53.647Z,101419.84
2023-05-04T07:03:32.420Z,101423.14
2023-05-04T07:06:10.072Z,101418.65
2023-05-04T07:08:42.452Z,101422.27
2023-05-04T07:11:12.335Z,101421.38
2023-05-04T07:13:45.468Z,101422.19
2023-05-04T07:16:23.411Z,101421.29
2023-05-04T07:19:03.180Z,101418.08
2023-05-04T07:21:42.475Z,101417.69
2023-05-04T07:24:16.433Z,101415.12
2023-05-04T07:26:48.193Z,101416.27
2023-05-04T07:29:27.005Z,101417.11
2023-05-04T07:32:12.088Z,101416.15
2023-05-04T07:34:47.642Z,101413.15
2023-05-04T07:37:28.011Z,101412.16
2023-05-04T07:40:14.394Z,101404.04
2023-05-04T07:42:57.348Z,101403.91
2023-05-04T07:45:38.842Z,101408.61
2023-05-04T07:48:30.879Z,101410.61
2023-05-04T07:51:31.848Z,101405.02
2023-05-04T07:54:26.438Z,101405.10
2023-05-04T07:57:17.513Z,101408.80
2023-05-04T07:59:59.252Z,101407.64
2023-05-04T08:03:02.012Z,101400.89
2023-05-04T08:09:01.509Z,101401.96
2023-05-04T08:15:02.597Z,101400.45
2023-05-04T08:18:12.973Z,101400.32
2023-05-04T08:23:56.112Z,101396.70
2023-05-04T08:27:07.021Z,101397.56
2023-05-04T08:29:49.560Z,101395.92
2023-05-04T08:32:48.534Z,101395.92
2023-05-04T08:35:32.254Z,101394.64
2023-05-04T08:38:07.708Z,101391.52
2023-05-04T08:40:56.546Z,101392.34
2023-05-04T08:43:48.355Z,101392.84
2023-05-04T08:46:34.094Z,101386.39
2023-05-04T08:49:12.238Z,101386.60
2023-05-04T08:51:59.308Z,101387.05
2023-05-04T08:54:36.075Z,101392.10
2023-05-04T08:57:16.538Z,101391.32
2023-05-04T08:59:59.955Z,101385.24
2023-05-04T09:02:54.764Z,101388.47
2023-05-04T09:05:25.326Z,101386.06
2023-05-04T09:08:01.375Z,101382.57
2023-05-04T09:10:37.866Z,101385.77
2023-05-04T09:13:49.174Z,101383.16
2023-05-04T09:16:38.677Z,101375.96
2023-05-04T09:19:24.247Z,101368.90
2023-05-04T09:21:59.149Z,101365.92
2023-05-04T09:24:46.877Z,101366.91
2023-05-04T09:27:20.637Z,101377.23
2023-05-04T09:30:17.946Z,101376.04
2023-05-04T09:33:03.629Z,101373.65
2023-05-04T09:35:48.575Z,101379.57
2023-05-04T09:38:35.061Z,101377.44
2023-05-04T09:41:37.099Z,101369.73
2023-05-04T09:44:55.035Z,101372.45
2023-05-04T09:48:41.057Z,101371.25
2023-05-04T09:51:26.975Z,101358.56
2023-05-04T09:54:12.154Z,101358.67
2023-05-04T09:57:02.033Z,101358.52
2023-05-04T10:00:14.016Z,101353.10
2023-05-04T10:02:46.520Z,101351.42
2023-05-04T10:05:48.379Z,101352.79
2023-05-04T10:09:12.477Z,101350.85
2023-05-04T10:11:50.880Z,101347.51
2023-05-04T10:14:42.097Z,101345.88
2023-05-04T10:17:48.444Z,101348.00
2023-05-04T10:20:31.987Z,101343.92
2023-05-04T10:23:55.551Z,101340.77
2023-05-04T10:27:00.075Z,101334.21
2023-05-04T10:29:35.841Z,101329.15
2023-05-04T10:32:07.546Z,101323.62
2023-05-04T10:34:44.578Z,101319.66
2023-05-04T10:37:23.176Z,101318.02
2023-05-04T10:40:17.233Z,101312.66
2023-05-04T10:42:46.551Z,101313.42
2023-05-04T10:45:24.321Z,101316.02
2023-05-04T10:47:58.631Z,101307.51
2023-05-04T10:50:31.487Z,101302.08
2023-05-04T10:53:04.592Z,101302.83
2023-05-04T10:56:10.744Z,101290.91
2023-05-04T10:58:47.143Z,101289.71
2023-05-04T11:01:24.264Z,101283.34
2023-05-04T11:04:04.448Z,101281.67
2023-05-04T11:06:42.898Z,101285.37
2023-05-04T11:09:15.130Z,101280.88
2023-05-04T11:11:58.195Z,101275.75
2023-05-04T11:14:31.693Z,101277.30
2023-05-04T11:17:19.576Z,101277.82
2023-05-04T11:20:00.215Z,101270.27
2023-05-04T11:22:32.803Z,101263.06
2023-05-04T11:25:06.565Z,101257.77
2023-05-04T11:28:14.337Z,101252.65
2023-05-04T11:30:53.746Z,101248.86
2023-05-04T11:33:31.153Z,101250.17
2023-05-04T11:36:08.855Z,101247.91
2023-05-04T11:38:46.966Z,101251.55
2023-05-04T11:41:29.506Z,101253.35
2023-05-04T11:44:12.867Z,101251.42
2023-05-04T11:47:00.622Z,101252.26
2023-05-04T11:49:42.377Z,101244.29
2023-05-04T11:52:16.862Z,101239.73
2023-05-04T11:55:08.728Z,101236.48
2023-05-04T11:58:21.788Z,101232.02
2023-05-04T12:01:03.136Z,101225.75
2023-05-04T12:03:52.021Z,101224.59
2023-05-04T12:07:08.130Z,101231.86
2023-05-04T12:09:59.403Z,101233.13
2023-05-04T12:12:52.630Z,101238.59
2023-05-04T12:15:46.232Z,101230.69
2023-05-04T12:18:34.022Z,101226.52
2023-05-04T12:21:28.852Z,101226.27
2023-05-04T12:24:26.407Z,101219.40
2023-05-04T12:26:57.680Z,101215.89
2023-05-04T12:30:29.908Z,101214.59
2023-05-04T12:33:25.867Z,101217.68
2023-05-04T12:36:13.522Z,101225.06
2023-05-04T12:38:52.931Z,101227.18
2023-05-04T12:41:35.922Z,101221.28
2023-05-04T12:44:29.662Z,101212.55
2023-05-04T12:47:17.573Z,101205.66
2023-05-04T12:50:11.063Z,101201.48
2023-05-04T12:52:48.786Z,101195.95
2023-05-04T12:55:39.753Z,101189.54
2023-05-04T12:58:32.319Z,101189.27
2023-05-04T13:01:06.192Z,101186.98
2023-05-04T13:03:38.301Z,101185.32
2023-05-04T13:06:14.283Z,101178.73
2023-05-04T13:09:01.465Z,101178.38
2023-05-04T13:11:53.232Z,101180.86
2023-05-04T13:14:50.868Z,101176.47
2023-05-04T13:17:33.750Z,101174.59
2023-05-04T13:20:32.598Z,101164.37
2023-05-04T13:23:20.519Z,101157.09
2023-05-04T13:25:56.146Z,101156.64
2023-05-04T13:28:39.273Z,101150.64
2023-05-04T13:31:53.453Z,101151.85
2023-05-04T13:34:34.963Z,101151.23
2023-05-04T13:37:28.011Z,101148.85
2023-05-04T13:40:15.428Z,101149.13
2023-05-04T13:43:21.738Z,101151.45
2023-05-04T13:46:31.623Z,101146.24
2023-05-04T13:49:12.783Z,101143.02
2023-05-04T13:51:55.005Z,101139.46
2023-05-04T13:54:52.043Z,101135.74
2023-05-04T13:57:42.141Z,101127.11
2023-05-04T14:00:54.053Z,101125.25
2023-05-04T14:03:31.047Z,101121.88
2023-05-04T14:06:08.348Z,101120.70
2023-05-04T14:09:38.105Z,101112.71
2023-05-04T14:12:20.063Z,101111.80
2023-05-04T14:15:08.414Z,101106.08
2023-05-04T14:18:27.706Z,101102.24
2023-05-04T14:21:59.812Z,101102.67
2023-05-04T14:28:33.622Z,101088.55
2023-05-04T14:31:43.355Z,101083.89
2023-05-04T14:34:23.123Z,101085.02
2023-05-04T14:37:02.900Z,101086.39
2023-05-04T14:42:50.093Z,101086.08
2023-05-04T14:45:28.372Z,101079.50
2023-05-04T14:48:35.392Z,101074.60
2023-05-04T14:51:23.276Z,101070.98
2023-05-04T14:54:19.114Z,101072.36
2023-05-04T14:57:21.356Z,101070.13
2023-05-04T15:00:00.471Z,101070.28
2023-05-04T15:02:42.223Z,101069.03
2023-05-04T15:05:20.819Z,101068.02
2023-05-04T15:08:15.537Z,101068.89
2023-05-04T15:10:59.722Z,101063.19
2023-05-04T15:14:00.418Z,101060.50
2023-05-04T15:16:44.438Z,101060.88
2023-05-04T15:19:21.301Z,101063.90
2023-05-04T15:22:02.854Z,101062.80
2023-05-04T15:25:30.070Z,101066.36
2023-05-04T15:29:25.603Z,101062.40
2023-05-04T15:32:13.338Z,101053.33
2023-05-04T15:35:28.750Z,101048.98
2023-05-04T15:47:27.902Z,101035.86
2023-05-04T15:49:56.972Z,101032.08
2023-05-04T15:52:24.919Z,101031.94
2023-05-04T15:54:54.198Z,101025.90
2023-05-04T15:57:22.538Z,101027.55
2023-05-04T15:59:50.815Z,101026.05
2023-05-04T16:02:19.349Z,101022.41
2023-05-04T16:04:47.520Z,101017.76
2023-05-04T16:07:21.094Z,101014.36
2023-05-04T16:09:49.421Z,101011.67
2023-05-04T16:12:21.033Z,101006.90
2023-05-04T16:14:50.578Z,101006.32
2023-05-04T16:17:18.577Z,101006.44
2023-05-04T16:19:46.612Z,101006.95
2023-05-04T16:22:15.045Z,101004.27
2023-05-04T16:24:44.035Z,101000.34
2023-05-04T16:27:12.645Z,100999.69
2023-05-04T16:29:41.522Z,101000.77
2023-05-04T16:32:10.059Z,101001.91
2023-05-04T16:34:40.517Z,101004.23
2023-05-04T16:37:10.822Z,101002.86
2023-05-04T16:39:39.753Z,101006.04
2023-05-04T16:42:10.882Z,100998.57
2023-05-04T16:44:42.712Z,100997.65
2023-05-04T16:47:14.601Z,100991.80
2023-05-04T16:49:52.851Z,100988.64
2023-05-04T16:52:25.099Z,100985.58
2023-05-04T16:55:04.007Z,100983.67
2023-05-04T16:57:59.601Z,100985.38
2023-05-04T17:01:14.682Z,100979.80
2023-05-04T17:04:05.579Z,100975.98
2023-05-04T17:08:00.087Z,100975.73
2023-05-04T17:10:32.730Z,100979.08
2023-05-04T17:19:04.380Z,100973.61
2023-05-04T17:21:59.017Z,100976.14
2023-05-04T17:24:36.853Z,100977.79
2023-05-04T17:27:05.963Z,100979.92
2023-05-04T17:29:43.803Z,100982.54
2023-05-04T17:32:28.580Z,100980.23
2023-05-04T17:35:24.576Z,100979.84
2023-05-04T17:38:18.135Z,100983.62
2023-05-04T17:41:23.081Z,100987.94
2023-05-04T17:44:02.574Z,100988.36
2023-05-04T17:46:38.946Z,100986.30
2023-05-04T17:49:13.055Z,100986.24
2023-05-04T17:55:03.004Z,100986.59
2023-05-04T17:57:37.909Z,100983.72
2023-05-04T18:00:11.308Z,100984.16
2023-05-04T18:02:46.643Z,100988.37
2023-05-04T18:05:24.998Z,100995.57
2023-05-04T18:08:10.395Z,100996.69
2023-05-04T18:10:54.532Z,100996.42
2023-05-04T18:14:28.703Z,100997.49
2023-05-04T18:17:32.922Z,101007.73
2023-05-04T18:20:13.892Z,101008.79
2023-05-04T18:23:31.174Z,101009.95
2023-05-04T18:26:54.665Z,101014.77
2023-05-04T18:29:52.656Z,101012.67
2023-05-04T18:33:00.199Z,101014.39
2023-05-04T18:35:36.568Z,101012.98
2023-05-04T18:38:26.454Z,101010.55
2023-05-04T18:41:07.361Z,101010.73
2023-05-04T18:44:04.055Z,101011.85
2023-05-04T18:47:06.432Z,101011.91
2023-05-04T18:50:00.768Z,101013.29
2023-05-04T18:53:08.374Z,101014.02
2023-05-04T18:56:29.882Z,101017.02
2023-05-04T18:59:27.711Z,101019.08
2023-05-04T19:02:40.717Z,101016.29
2023-05-04T19:05:40.638Z,101013.93
2023-05-04T19:08:40.346Z,101020.52
2023-05-04T19:11:26.994Z,101022.32
2023-05-04T19:14:20.449Z,101032.30
2023-05-04T19:17:01.660Z,101032.73
2023-05-04T19:20:31.353Z,101034.30
2023-05-04T19:23:58.936Z,101034.35
2023-05-04T19:26:44.852Z,101031.75
2023-05-04T19:29:37.838Z,101031.79
2023-05-04T19:32:40.887Z,101033.34
2023-05-04T19:35:51.124Z,101032.55
2023-05-04T19:39:02.362Z,101030.05
2023-05-04T19:42:01.154Z,101025.23
2023-05-04T19:45:10.889Z,101020.16
2023-05-04T19:48:17.418Z,101021.25
2023-05-04T19:51:28.694Z,101020.27
2023-05-04T19:54:16.475Z,101019.91
2023-05-04T19:57:03.470Z,101018.89
2023-05-04T19:59:57.533Z,101016.61
2023-05-04T20:02:57.160Z,101015.09
2023-05-04T20:06:01.297Z,101017.52
2023-05-04T20:09:21.092Z,101017.48
2023-05-04T20:12:23.491Z,101014.18
2023-05-04T20:15:06.539Z,101014.25
2023-05-04T20:18:06.969Z,101010.41
2023-05-04T20:21:16.794Z,101016.40
2023-05-04T20:23:51.745Z,101013.02
2023-05-04T20:26:33.594Z,101012.48
2023-05-04T20:29:13.218Z,101013.62
2023-05-04T20:32:05.917Z,101007.43
2023-05-04T20:34:54.733Z,101008.58
2023-05-04T20:37:41.965Z,101010.46
2023-05-04T20:40:41.895Z,101010.96
2023-05-04T20:43:26.174Z,101011.08
2023-05-04T20:46:10.919Z,101009.27
2023-05-04T20:49:07.586Z,101009.57
2023-05-04T20:52:09.082Z,101007.31
2023-05-04T20:54:58.344Z,101003.95
2023-05-04T20:57:37.468Z,101004.39
2023-05-04T21:00:34.609Z,101004.40
2023-05-04T21:03:23.488Z,101002.44
2023-05-04T21:06:12.975Z,101006.84
2023-05-04T21:08:52.757Z,101004.80
2023-05-04T21:11:21.543Z,101000.19
2023-05-04T21:13:56.170Z,100998.67
2023-05-04T21:16:46.396Z,100997.67
2023-05-04T21:19:33.883Z,100999.16
2023-05-04T21:22:13.435Z,100996.10
2023-05-04T21:24:51.524Z,100998.95
2023-05-04T21:27:35.683Z,100994.89
2023-05-04T21:30:09.942Z,100993.79
2023-05-04T21:32:42.510Z,100992.71
2023-05-04T21:35:16.145Z,100990.05
2023-05-04T21:37:46.309Z,100986.86
2023-05-04T21:40:17.333Z,100985.60
2023-05-04T21:42:49.476Z,100985.70
2023-05-04T21:45:23.182Z,100984.97
2023-05-04T21:47:52.749Z,100986.80
2023-05-04T21:50:23.922Z,100985.02
2023-05-04T21:52:53.006Z,100984.99
2023-05-04T21:55:22.008Z,100986.29
2023-05-04T21:57:53.435Z,100985.02
2023-05-04T22:00:25.142Z,100986.52
2023-05-04T22:02:54.868Z,100989.03
2023-05-04T22:05:26.548Z,100988.20
2023-05-04T22:07:59.770Z,100989.01
2023-05-04T22:10:36.602Z,100987.88
2023-05-04T22:13:13.254Z,100986.92
2023-05-04T22:15:49.993Z,100984.60
2023-05-04T22:18:23.471Z,100985.55
2023-05-04T22:21:04.076Z,100985.45
2023-05-04T22:23:38.073Z,100984.81
2023-05-04T22:26:07.421Z,100986.41
2023-05-04T22:28:36.074Z,100984.86
2023-05-04T22:31:07.034Z,100987.55
2023-05-04T22:33:35.814Z,100990.56
2023-05-04T22:36:12.453Z,100994.80
2023-05-04T22:38:43.610Z,100994.40
2023-05-04T22:41:16.051Z,100994.98
2023-05-04T22:43:47.460Z,100992.98
2023-05-04T22:46:18.981Z,100990.41
2023-05-04T22:48:47.633Z,100987.16
2023-05-04T22:51:16.718Z,100988.77
2023-05-04T22:53:45.908Z,100986.30
2023-05-04T22:56:16.971Z,100982.92
2023-05-04T22:58:46.307Z,100982.09
2023-05-04T23:01:18.292Z,100979.53
2023-05-04T23:03:48.363Z,100980.76
2023-05-04T23:06:17.794Z,100982.02
2023-05-04T23:08:46.928Z,100986.10
2023-05-04T23:11:34.232Z,100982.16
2023-05-04T23:14:05.610Z,100984.52
2023-05-04T23:16:38.091Z,100983.17
2023-05-04T23:19:09.506Z,100981.98
2023-05-04T23:21:43.060Z,100973.00
2023-05-04T23:24:15.493Z,100974.61
2023-05-04T23:26:44.662Z,100971.70
2023-05-04T23:29:16.635Z,100968.87
2023-05-04T23:31:48.979Z,100965.00
2023-05-04T23:34:17.620Z,100959.38
2023-05-04T23:36:46.546Z,100956.34
2023-05-04T23:39:16.395Z,100953.98
2023-05-04T23:41:45.105Z,100957.56
2023-05-04T23:44:16.407Z,100958.12
2023-05-04T23:46:50.680Z,100964.35
2023-05-04T23:49:19.718Z,100966.08
2023-05-04T23:51:48.658Z,100964.67
2023-05-04T23:54:19.427Z,100965.71
2023-05-04T23:56:48.574Z,100964.39
2023-05-04T23:59:23.430Z,100966.65
